Butterfly — C6UP2 — position and weather

sailwx.info

Track history (hours):
 
Tides and Currents Weather Stations Pressure Air Temp Water Temp Dewpoint Dewpoint Depression Visibility Wind Speed Wind Dir Waves Ship Positions

Butterfly

Last reported at 2017-Aug-09 06:31 UTC. Time now 2017-Aug-20 00:35 UTC.
Position N 26°46' W 015°29'.
Warning: this ship's position is 10 days out of date.

Length 182 m; draft 10.8 m.

Type: Ship. MMSI: 311985000.

Date/timePositionNaut miles runAvg speedWind from/ knotsBaromVisibWave heightAir tempDewpointWater temp
2017-Aug-09 06:31N 26°46' W 015°29'114.7
2017-Aug-09 06:28N 26°47' W 015°29'1314.4
2017-Aug-09 05:33N 26°58' W 015°20'314.2
2017-Aug-09 05:21N 27°00' W 015°19'614.2
2017-Aug-09 04:54N 27°06' W 015°17'3413.9
2017-Aug-09 02:28N 27°40' W 015°10'612.7
2017-Aug-09 02:00N 27°46' W 015°09'713.2
2017-Aug-09 01:30N 27°52' W 015°07'713.6
2017-Aug-09 01:00N 27°58' W 015°04'713.6
2017-Aug-09 00:30N 28°05' W 015°02'713.6
2017-Aug-09 00:00N 28°11' W 014°59'713.2
2017-Aug-08 23:30N 28°17' W 014°56'713.3
2017-Aug-08 23:00N 28°23' W 014°53'713.3
2017-Aug-08 22:30N 28°29' W 014°50'713.0
2017-Aug-08 21:58N 28°35' W 014°46'613.2
2017-Aug-08 21:30N 28°41' W 014°43'713.4
2017-Aug-08 21:00N 28°47' W 014°40'713.4
2017-Aug-08 20:29N 28°53' W 014°36'613.2
2017-Aug-08 20:01N 28°59' W 014°33'713.1
2017-Aug-08 19:31N 29°04' W 014°30'713.1
2017-Aug-08 19:00N 29°10' W 014°26'713.3
2017-Aug-08 18:31N 29°16' W 014°23'913.2
2017-Aug-08 17:49N 29°25' W 014°18'513.0
2017-Aug-08 17:27N 29°29' W 014°16'613.0
2017-Aug-08 17:01N 29°33' W 014°12'713.4
2017-Aug-08 16:30N 29°38' W 014°06'713.3
2017-Aug-08 16:00N 29°43' W 014°01'713.2
2017-Aug-08 15:30N 29°48' W 013°56'713.2
2017-Aug-08 15:00N 29°53' W 013°51'713.5
2017-Aug-08 14:31N 29°58' W 013°46'713.6
2017-Aug-08 14:01N 30°03' W 013°41'713.5
2017-Aug-08 13:30N 30°08' W 013°35'713.4
2017-Aug-08 13:00N 30°13' W 013°30'713.3
2017-Aug-08 12:30N 30°18' W 013°25'713.2
2017-Aug-08 12:01N 30°23' W 013°20'713.3
2017-Aug-08 11:30N 30°28' W 013°15'713.2
2017-Aug-08 11:00N 30°33' W 013°10'713.1
2017-Aug-08 10:30N 30°37' W 013°04'612.9
2017-Aug-08 10:00N 30°42' W 012°59'713.1
2017-Aug-08 09:30N 30°47' W 012°54'613.2
2017-Aug-08 09:00N 30°52' W 012°49'713.0
2017-Aug-08 08:30N 30°57' W 012°44'713.0
2017-Aug-08 07:59N 31°02' W 012°39'612.8
2017-Aug-08 07:30N 31°06' W 012°34'612.8
2017-Aug-08 07:00N 31°11' W 012°29'713.0
2017-Aug-08 06:28N 31°16' W 012°24'612.7
2017-Aug-08 06:00N 31°21' W 012°19'612.7
2017-Aug-08 05:30N 31°25' W 012°14'713.0
2017-Aug-08 04:58N 31°30' W 012°08'613.0
2017-Aug-08 04:29N 31°35' W 012°03'613.2
2017-Aug-08 04:00N 31°40' W 011°58'713.3
2017-Aug-08 03:30N 31°45' W 011°53'713.2
2017-Aug-08 02:57N 31°50' W 011°47'613.1
2017-Aug-08 02:31N 31°54' W 011°43'713.1
2017-Aug-08 02:00N 31°59' W 011°38'612.8
2017-Aug-08 01:31N 32°04' W 011°33'712.9
2017-Aug-08 01:00N 32°09' W 011°27'713.3
2017-Aug-08 00:30N 32°14' W 011°22'1013.5
2017-Aug-07 23:46N 32°21' W 011°14'413.4
2017-Aug-07 23:27N 32°24' W 011°11'913.6
2017-Aug-07 22:47N 32°31' W 011°04'413.6
2017-Aug-07 22:29N 32°34' W 011°00'813.4
2017-Aug-07 21:53N 32°40' W 010°54'513.2
2017-Aug-07 21:30N 32°44' W 010°50'713.3
2017-Aug-07 20:59N 32°49' W 010°44'2413.2
2017-Aug-07 19:09N 33°07' W 010°25'2613.3
2017-Aug-07 17:14N 33°26' W 010°05'313.4
2017-Aug-07 16:59N 33°28' W 010°02'613.5
2017-Aug-07 16:30N 33°33' W 009°56'713.7
2017-Aug-07 16:00N 33°37' W 009°50'713.8
2017-Aug-07 15:30N 33°41' W 009°43'713.7
2017-Aug-07 15:00N 33°45' W 009°37'713.5
2017-Aug-07 14:30N 33°49' W 009°30'713.7
2017-Aug-07 14:01N 33°54' W 009°24'713.5
2017-Aug-07 13:30N 33°58' W 009°17'713.4
2017-Aug-07 12:59N 34°02' W 009°11'613.2
2017-Aug-07 12:30N 34°06' W 009°05'712.9
2017-Aug-07 11:56N 34°11' W 008°58'612.8
2017-Aug-07 11:29N 34°14' W 008°52'612.8
2017-Aug-07 11:00N 34°18' W 008°46'612.7
2017-Aug-07 10:31N 34°22' W 008°40'612.8
2017-Aug-07 10:00N 34°26' W 008°34'612.8
2017-Aug-07 09:30N 34°30' W 008°28'613.1
2017-Aug-07 09:01N 34°34' W 008°22'713.3
2017-Aug-07 08:30N 34°38' W 008°16'713.4
2017-Aug-07 08:00N 34°42' W 008°09'713.6
2017-Aug-07 07:30N 34°46' W 008°03'713.6
2017-Aug-07 07:00N 34°51' W 007°56'713.4
2017-Aug-07 06:30N 34°55' W 007°50'713.3
2017-Aug-07 06:00N 34°59' W 007°44'713.2
2017-Aug-07 05:31N 35°03' W 007°37'713.3
2017-Aug-07 05:00N 35°07' W 007°31'713.5
2017-Aug-07 04:30N 35°11' W 007°24'713.4
2017-Aug-07 04:00N 35°15' W 007°18'713.5
2017-Aug-07 03:30N 35°19' W 007°11'713.4
2017-Aug-07 03:00N 35°24' W 007°05'713.3
2017-Aug-07 02:30N 35°28' W 006°58'713.3
2017-Aug-07 02:00N 35°32' W 006°52'6013.1
2017-Aug-06 21:26N 35°57' W 005°45'813.6
2017-Aug-06 20:52N 35°57' W 005°36'411.8
2017-Aug-06 20:30N 35°59' W 005°31'510.8
2017-Aug-06 20:00N 36°00' W 005°25'510.8
2017-Aug-06 19:30N 36°02' W 005°18'612.7
2017-Aug-06 19:00N 36°04' W 005°11'712.8
2017-Aug-06 18:30N 36°06' W 005°03'611.8
2017-Aug-06 17:58N 36°07' W 004°55'1011.4
2017-Aug-06 17:04N 36°09' W 004°43'111.4
2017-Aug-06 17:00N 36°09' W 004°42'911.1
2017-Aug-06 16:13N 36°10' W 004°31'10212.7
2017-Aug-06 08:09N 36°24' W 002°26'2913.6
2017-Aug-06 06:01N 36°29' W 001°50'913.2
2017-Aug-06 05:22N 36°31' W 001°39'613.4
2017-Aug-06 04:55N 36°32' W 001°32'613.2
2017-Aug-06 04:26N 36°33' W 001°24'1613.1
2017-Aug-06 03:14N 36°35' W 001°05'313.4
2017-Aug-06 03:00N 36°36' W 001°01'713.3
2017-Aug-06 02:29N 36°37' W 000°53'713.6
2017-Aug-06 02:00N 36°38' W 000°44'713.5
2017-Aug-06 01:30N 36°39' W 000°36'713.5
2017-Aug-06 01:00N 36°41' W 000°28'713.4
2017-Aug-06 00:30N 36°41' W 000°20'713.2
2017-Aug-06 00:00N 36°42' W 000°12'713.4
2017-Aug-05 23:30N 36°43' W 000°04'713.3
2017-Aug-05 23:00N 36°45' E 000°05'713.4
2017-Aug-05 22:30N 36°46' E 000°13'713.6
2017-Aug-05 22:00N 36°47' E 000°21'713.2
2017-Aug-05 21:30N 36°48' E 000°29'613.1
2017-Aug-05 21:00N 36°49' E 000°37'713.0
2017-Aug-05 20:30N 36°50' E 000°45'712.9
2017-Aug-05 19:58N 36°52' E 000°54'612.4
2017-Aug-05 19:30N 36°53' E 001°01'712.8
2017-Aug-05 18:57N 36°54' E 001°10'613.2
2017-Aug-05 18:30N 36°55' E 001°17'713.4
2017-Aug-05 17:59N 36°56' E 001°25'713.5
2017-Aug-05 17:28N 36°57' E 001°34'713.6
2017-Aug-05 16:57N 36°58' E 001°43'613.6
2017-Aug-05 16:30N 36°60' E 001°50'713.4
2017-Aug-05 16:00N 37°01' E 001°59'713.5
2017-Aug-05 15:30N 37°02' E 002°07'713.6
2017-Aug-05 15:01N 37°03' E 002°15'713.4
2017-Aug-05 14:30N 37°04' E 002°24'713.3
2017-Aug-05 14:00N 37°05' E 002°32'613.0
2017-Aug-05 13:30N 37°06' E 002°40'613.0
2017-Aug-05 13:00N 37°07' E 002°48'713.2
2017-Aug-05 12:30N 37°08' E 002°56'713.2
2017-Aug-05 12:00N 37°09' E 003°04'1513.3
2017-Aug-05 10:55N 37°12' E 003°22'513.4
2017-Aug-05 10:30N 37°13' E 003°29'713.2
2017-Aug-05 10:00N 37°13' E 003°37'713.2
2017-Aug-05 09:29N 37°13' E 003°46'613.3
2017-Aug-05 09:00N 37°13' E 003°54'6213.3
2017-Aug-05 04:22N 37°13' E 005°11'613.3
2017-Aug-05 03:55N 37°13' E 005°19'1013.3
2017-Aug-05 03:09N 37°13' E 005°32'213.3
2017-Aug-05 03:00N 37°13' E 005°34'713.1
2017-Aug-05 02:28N 37°13' E 005°43'6012.6
2017-Aug-04 21:44N 37°00' E 006°56'313.0
2017-Aug-04 21:30N 36°58' E 006°58'5 0.2
2017-Aug-03 15:11N 36°53' E 006°56'4 1.7
2017-Aug-03 12:42N 36°58' E 006°56'1 6.4
2017-Aug-03 12:30N 36°58' E 006°55'611.1
2017-Aug-03 12:00N 37°03' E 006°52'5 9.2
2017-Aug-03 11:29N 37°08' E 006°52'0 0.7
2017-Aug-03 10:52N 37°07' E 006°53'0 0.7
2017-Aug-03 10:30N 37°07' E 006°53'1 0.3
2017-Aug-03 07:04N 37°08' E 006°54'0 0.3
2017-Aug-03 06:49N 37°08' E 006°54'5 3.0
2017-Aug-03 05:18N 37°12' E 006°54'1 0.6
2017-Aug-03 04:08N 37°11' E 006°54'0 0.6
2017-Aug-03 03:46N 37°11' E 006°54'1 0.6
2017-Aug-03 01:57N 37°10' E 006°54'1 0.7
2017-Aug-03 00:34N 37°09' E 006°53'0 0.8
2017-Aug-03 00:30N 37°09' E 006°53'0 0.6
2017-Aug-02 23:58N 37°09' E 006°53'0 0.4
2017-Aug-02 23:29N 37°09' E 006°53'0 0.4
2017-Aug-02 22:59N 37°08' E 006°53'0 0.8
2017-Aug-02 22:28N 37°08' E 006°53'3 4.8
2017-Aug-02 21:56N 37°11' E 006°52'2 0.8
2017-Aug-02 19:27N 37°12' E 006°51'1 1.2
2017-Aug-02 18:41N 37°11' E 006°51'0 1.3
2017-Aug-02 18:30N 37°11' E 006°51'1 1.1
2017-Aug-02 17:53N 37°11' E 006°52'1 0.9
2017-Aug-02 16:36N 37°10' E 006°53'0 1.0
2017-Aug-02 16:25N 37°10' E 006°53'0 0.9
2017-Aug-02 15:58N 37°10' E 006°53'0 0.9
2017-Aug-02 15:25N 37°09' E 006°54'0 0.9
2017-Aug-02 14:59N 37°09' E 006°55'1 1.0
2017-Aug-02 13:30N 37°09' E 006°56'0 0.8
2017-Aug-02 13:00N 37°09' E 006°57'3 5.8
2017-Aug-02 12:30N 37°06' E 006°55'1 0.7
2017-Aug-02 11:26N 37°06' E 006°54'0 0.7
2017-Aug-02 11:00N 37°06' E 006°55'1 0.5
2017-Aug-02 09:44N 37°06' E 006°55'1 0.5
2017-Aug-02 07:47N 37°07' E 006°55'0 0.4
2017-Aug-02 07:26N 37°08' E 006°54'  
Track history (hours):
 
Tides and Currents Weather Stations Pressure Air Temp Water Temp Dewpoint Dewpoint Depression Visibility Wind Speed Wind Dir Waves Ship Positions

Butterfly

Last reported at 2017-Aug-09 06:31 UTC. Time now 2017-Aug-20 00:35 UTC.
Position N 26°46' W 015°29'.
Warning: this ship's position is 10 days out of date.

Length 182 m; draft 10.8 m.

Type: Ship. MMSI: 311985000.

Date/timePositionNaut miles runAvg speedWind from/ knotsBaromVisibWave heightAir tempDewpointWater temp
2017-Aug-09 06:31N 26°46' W 015°29'114.7
2017-Aug-09 06:28N 26°47' W 015°29'1314.4
2017-Aug-09 05:33N 26°58' W 015°20'314.2
2017-Aug-09 05:21N 27°00' W 015°19'614.2
2017-Aug-09 04:54N 27°06' W 015°17'3413.9
2017-Aug-09 02:28N 27°40' W 015°10'612.7
2017-Aug-09 02:00N 27°46' W 015°09'713.2
2017-Aug-09 01:30N 27°52' W 015°07'713.6
2017-Aug-09 01:00N 27°58' W 015°04'713.6
2017-Aug-09 00:30N 28°05' W 015°02'713.6
2017-Aug-09 00:00N 28°11' W 014°59'713.2
2017-Aug-08 23:30N 28°17' W 014°56'713.3
2017-Aug-08 23:00N 28°23' W 014°53'713.3
2017-Aug-08 22:30N 28°29' W 014°50'713.0
2017-Aug-08 21:58N 28°35' W 014°46'613.2
2017-Aug-08 21:30N 28°41' W 014°43'713.4
2017-Aug-08 21:00N 28°47' W 014°40'713.4
2017-Aug-08 20:29N 28°53' W 014°36'613.2
2017-Aug-08 20:01N 28°59' W 014°33'713.1
2017-Aug-08 19:31N 29°04' W 014°30'713.1
2017-Aug-08 19:00N 29°10' W 014°26'713.3
2017-Aug-08 18:31N 29°16' W 014°23'913.2
2017-Aug-08 17:49N 29°25' W 014°18'513.0
2017-Aug-08 17:27N 29°29' W 014°16'613.0
2017-Aug-08 17:01N 29°33' W 014°12'713.4
2017-Aug-08 16:30N 29°38' W 014°06'713.3
2017-Aug-08 16:00N 29°43' W 014°01'713.2
2017-Aug-08 15:30N 29°48' W 013°56'713.2
2017-Aug-08 15:00N 29°53' W 013°51'713.5
2017-Aug-08 14:31N 29°58' W 013°46'713.6
2017-Aug-08 14:01N 30°03' W 013°41'713.5
2017-Aug-08 13:30N 30°08' W 013°35'713.4
2017-Aug-08 13:00N 30°13' W 013°30'713.3
2017-Aug-08 12:30N 30°18' W 013°25'713.2
2017-Aug-08 12:01N 30°23' W 013°20'713.3
2017-Aug-08 11:30N 30°28' W 013°15'713.2
2017-Aug-08 11:00N 30°33' W 013°10'713.1
2017-Aug-08 10:30N 30°37' W 013°04'612.9
2017-Aug-08 10:00N 30°42' W 012°59'713.1
2017-Aug-08 09:30N 30°47' W 012°54'613.2
2017-Aug-08 09:00N 30°52' W 012°49'713.0
2017-Aug-08 08:30N 30°57' W 012°44'713.0
2017-Aug-08 07:59N 31°02' W 012°39'612.8
2017-Aug-08 07:30N 31°06' W 012°34'612.8
2017-Aug-08 07:00N 31°11' W 012°29'713.0
2017-Aug-08 06:28N 31°16' W 012°24'612.7
2017-Aug-08 06:00N 31°21' W 012°19'612.7
2017-Aug-08 05:30N 31°25' W 012°14'713.0
2017-Aug-08 04:58N 31°30' W 012°08'613.0
2017-Aug-08 04:29N 31°35' W 012°03'613.2
2017-Aug-08 04:00N 31°40' W 011°58'713.3
2017-Aug-08 03:30N 31°45' W 011°53'713.2
2017-Aug-08 02:57N 31°50' W 011°47'613.1
2017-Aug-08 02:31N 31°54' W 011°43'713.1
2017-Aug-08 02:00N 31°59' W 011°38'612.8
2017-Aug-08 01:31N 32°04' W 011°33'712.9
2017-Aug-08 01:00N 32°09' W 011°27'713.3
2017-Aug-08 00:30N 32°14' W 011°22'1013.5
2017-Aug-07 23:46N 32°21' W 011°14'413.4
2017-Aug-07 23:27N 32°24' W 011°11'913.6
2017-Aug-07 22:47N 32°31' W 011°04'413.6
2017-Aug-07 22:29N 32°34' W 011°00'813.4
2017-Aug-07 21:53N 32°40' W 010°54'513.2
2017-Aug-07 21:30N 32°44' W 010°50'713.3
2017-Aug-07 20:59N 32°49' W 010°44'2413.2
2017-Aug-07 19:09N 33°07' W 010°25'2613.3
2017-Aug-07 17:14N 33°26' W 010°05'313.4
2017-Aug-07 16:59N 33°28' W 010°02'613.5
2017-Aug-07 16:30N 33°33' W 009°56'713.7
2017-Aug-07 16:00N 33°37' W 009°50'713.8
2017-Aug-07 15:30N 33°41' W 009°43'713.7
2017-Aug-07 15:00N 33°45' W 009°37'713.5
2017-Aug-07 14:30N 33°49' W 009°30'713.7
2017-Aug-07 14:01N 33°54' W 009°24'713.5
2017-Aug-07 13:30N 33°58' W 009°17'713.4
2017-Aug-07 12:59N 34°02' W 009°11'613.2
2017-Aug-07 12:30N 34°06' W 009°05'712.9
2017-Aug-07 11:56N 34°11' W 008°58'612.8
2017-Aug-07 11:29N 34°14' W 008°52'612.8
2017-Aug-07 11:00N 34°18' W 008°46'612.7
2017-Aug-07 10:31N 34°22' W 008°40'612.8
2017-Aug-07 10:00N 34°26' W 008°34'612.8
2017-Aug-07 09:30N 34°30' W 008°28'613.1
2017-Aug-07 09:01N 34°34' W 008°22'713.3
2017-Aug-07 08:30N 34°38' W 008°16'713.4
2017-Aug-07 08:00N 34°42' W 008°09'713.6
2017-Aug-07 07:30N 34°46' W 008°03'713.6
2017-Aug-07 07:00N 34°51' W 007°56'713.4
2017-Aug-07 06:30N 34°55' W 007°50'713.3
2017-Aug-07 06:00N 34°59' W 007°44'713.2
2017-Aug-07 05:31N 35°03' W 007°37'713.3
2017-Aug-07 05:00N 35°07' W 007°31'713.5
2017-Aug-07 04:30N 35°11' W 007°24'713.4
2017-Aug-07 04:00N 35°15' W 007°18'713.5
2017-Aug-07 03:30N 35°19' W 007°11'713.4
2017-Aug-07 03:00N 35°24' W 007°05'713.3
2017-Aug-07 02:30N 35°28' W 006°58'713.3
2017-Aug-07 02:00N 35°32' W 006°52'6013.1
2017-Aug-06 21:26N 35°57' W 005°45'813.6
2017-Aug-06 20:52N 35°57' W 005°36'411.8
2017-Aug-06 20:30N 35°59' W 005°31'510.8
2017-Aug-06 20:00N 36°00' W 005°25'510.8
2017-Aug-06 19:30N 36°02' W 005°18'612.7
2017-Aug-06 19:00N 36°04' W 005°11'712.8
2017-Aug-06 18:30N 36°06' W 005°03'611.8
2017-Aug-06 17:58N 36°07' W 004°55'1011.4
2017-Aug-06 17:04N 36°09' W 004°43'111.4
2017-Aug-06 17:00N 36°09' W 004°42'911.1
2017-Aug-06 16:13N 36°10' W 004°31'10212.7
2017-Aug-06 08:09N 36°24' W 002°26'2913.6
2017-Aug-06 06:01N 36°29' W 001°50'913.2
2017-Aug-06 05:22N 36°31' W 001°39'613.4
2017-Aug-06 04:55N 36°32' W 001°32'613.2
2017-Aug-06 04:26N 36°33' W 001°24'1613.1
2017-Aug-06 03:14N 36°35' W 001°05'313.4
2017-Aug-06 03:00N 36°36' W 001°01'713.3
2017-Aug-06 02:29N 36°37' W 000°53'713.6
2017-Aug-06 02:00N 36°38' W 000°44'713.5
2017-Aug-06 01:30N 36°39' W 000°36'713.5
2017-Aug-06 01:00N 36°41' W 000°28'713.4
2017-Aug-06 00:30N 36°41' W 000°20'713.2
2017-Aug-06 00:00N 36°42' W 000°12'713.4
2017-Aug-05 23:30N 36°43' W 000°04'713.3
2017-Aug-05 23:00N 36°45' E 000°05'713.4
2017-Aug-05 22:30N 36°46' E 000°13'713.6
2017-Aug-05 22:00N 36°47' E 000°21'713.2
2017-Aug-05 21:30N 36°48' E 000°29'613.1
2017-Aug-05 21:00N 36°49' E 000°37'713.0
2017-Aug-05 20:30N 36°50' E 000°45'712.9
2017-Aug-05 19:58N 36°52' E 000°54'612.4
2017-Aug-05 19:30N 36°53' E 001°01'712.8
2017-Aug-05 18:57N 36°54' E 001°10'613.2
2017-Aug-05 18:30N 36°55' E 001°17'713.4
2017-Aug-05 17:59N 36°56' E 001°25'713.5
2017-Aug-05 17:28N 36°57' E 001°34'713.6
2017-Aug-05 16:57N 36°58' E 001°43'613.6
2017-Aug-05 16:30N 36°60' E 001°50'713.4
2017-Aug-05 16:00N 37°01' E 001°59'713.5
2017-Aug-05 15:30N 37°02' E 002°07'713.6
2017-Aug-05 15:01N 37°03' E 002°15'713.4
2017-Aug-05 14:30N 37°04' E 002°24'713.3
2017-Aug-05 14:00N 37°05' E 002°32'613.0
2017-Aug-05 13:30N 37°06' E 002°40'613.0
2017-Aug-05 13:00N 37°07' E 002°48'713.2
2017-Aug-05 12:30N 37°08' E 002°56'713.2
2017-Aug-05 12:00N 37°09' E 003°04'1513.3
2017-Aug-05 10:55N 37°12' E 003°22'513.4
2017-Aug-05 10:30N 37°13' E 003°29'713.2
2017-Aug-05 10:00N 37°13' E 003°37'713.2
2017-Aug-05 09:29N 37°13' E 003°46'613.3
2017-Aug-05 09:00N 37°13' E 003°54'6213.3
2017-Aug-05 04:22N 37°13' E 005°11'613.3
2017-Aug-05 03:55N 37°13' E 005°19'1013.3
2017-Aug-05 03:09N 37°13' E 005°32'213.3
2017-Aug-05 03:00N 37°13' E 005°34'713.1
2017-Aug-05 02:28N 37°13' E 005°43'6012.6
2017-Aug-04 21:44N 37°00' E 006°56'313.0
2017-Aug-04 21:30N 36°58' E 006°58'5 0.2
2017-Aug-03 15:11N 36°53' E 006°56'4 1.7
2017-Aug-03 12:42N 36°58' E 006°56'1 6.4
2017-Aug-03 12:30N 36°58' E 006°55'611.1
2017-Aug-03 12:00N 37°03' E 006°52'5 9.2
2017-Aug-03 11:29N 37°08' E 006°52'0 0.7
2017-Aug-03 10:52N 37°07' E 006°53'0 0.7
2017-Aug-03 10:30N 37°07' E 006°53'1 0.3
2017-Aug-03 07:04N 37°08' E 006°54'0 0.3
2017-Aug-03 06:49N 37°08' E 006°54'5 3.0
2017-Aug-03 05:18N 37°12' E 006°54'1 0.6
2017-Aug-03 04:08N 37°11' E 006°54'0 0.6
2017-Aug-03 03:46N 37°11' E 006°54'1 0.6
2017-Aug-03 01:57N 37°10' E 006°54'1 0.7
2017-Aug-03 00:34N 37°09' E 006°53'0 0.8
2017-Aug-03 00:30N 37°09' E 006°53'0 0.6
2017-Aug-02 23:58N 37°09' E 006°53'0 0.4
2017-Aug-02 23:29N 37°09' E 006°53'0 0.4
2017-Aug-02 22:59N 37°08' E 006°53'0 0.8
2017-Aug-02 22:28N 37°08' E 006°53'3 4.8
2017-Aug-02 21:56N 37°11' E 006°52'2 0.8
2017-Aug-02 19:27N 37°12' E 006°51'1 1.2
2017-Aug-02 18:41N 37°11' E 006°51'0 1.3
2017-Aug-02 18:30N 37°11' E 006°51'1 1.1
2017-Aug-02 17:53N 37°11' E 006°52'1 0.9
2017-Aug-02 16:36N 37°10' E 006°53'0 1.0
2017-Aug-02 16:25N 37°10' E 006°53'0 0.9
2017-Aug-02 15:58N 37°10' E 006°53'0 0.9
2017-Aug-02 15:25N 37°09' E 006°54'0 0.9
2017-Aug-02 14:59N 37°09' E 006°55'1 1.0
2017-Aug-02 13:30N 37°09' E 006°56'0 0.8
2017-Aug-02 13:00N 37°09' E 006°57'3 5.8
2017-Aug-02 12:30N 37°06' E 006°55'1 0.7
2017-Aug-02 11:26N 37°06' E 006°54'0 0.7
2017-Aug-02 11:00N 37°06' E 006°55'1 0.5
2017-Aug-02 09:44N 37°06' E 006°55'1 0.5
2017-Aug-02 07:47N 37°07' E 006°55'0 0.4
2017-Aug-02 07:26N 37°08' E 006°54'  

Dump ship's entire track history